createdAt,value
2023-05-14T00:00:57.074Z,10.43
2023-05-14T00:03:59.195Z,10.48
2023-05-14T00:07:01.298Z,10.52
2023-05-14T00:10:03.067Z,10.52
2023-05-14T00:13:06.097Z,10.54
2023-05-14T00:16:07.943Z,10.56
2023-05-14T00:19:09.811Z,10.54
2023-05-14T00:22:11.754Z,10.51
2023-05-14T00:25:13.489Z,10.52
2023-05-14T00:28:15.536Z,10.54
2023-05-14T00:31:17.284Z,10.54
2023-05-14T00:34:19.223Z,10.64
2023-05-14T00:37:20.980Z,10.64
2023-05-14T00:40:26.970Z,10.63
2023-05-14T00:43:28.763Z,10.68
2023-05-14T00:46:30.799Z,10.70
2023-05-14T00:49:32.755Z,10.71
2023-05-14T00:52:34.508Z,10.45
2023-05-14T00:55:41.666Z,10.40
2023-05-14T00:58:43.528Z,10.48
2023-05-14T01:01:45.343Z,10.53
2023-05-14T01:04:47.212Z,10.51
2023-05-14T01:07:57.342Z,10.44
2023-05-14T01:11:15.382Z,10.44
2023-05-14T01:14:33.792Z,10.53
2023-05-14T01:17:42.439Z,10.50
2023-05-14T01:20:45.399Z,10.51
2023-05-14T01:23:47.135Z,10.56
2023-05-14T01:26:48.937Z,10.62
2023-05-14T01:30:08.159Z,10.63
2023-05-14T01:33:14.604Z,10.66
2023-05-14T01:36:16.496Z,10.56
2023-05-14T01:39:19.135Z,10.65
2023-05-14T01:42:21.063Z,10.71
2023-05-14T01:45:24.163Z,10.67
2023-05-14T01:48:25.916Z,10.69
2023-05-14T01:51:27.733Z,10.71
2023-05-14T01:54:29.553Z,10.79
2023-05-14T01:57:31.562Z,10.80
2023-05-14T02:00:33.560Z,10.85
2023-05-14T02:03:35.373Z,10.88
2023-05-14T02:06:37.134Z,10.91
2023-05-14T02:09:40.106Z,10.76
2023-05-14T02:12:41.825Z,10.79
2023-05-14T02:15:43.616Z,10.82
2023-05-14T02:18:45.481Z,10.84
2023-05-14T02:21:48.345Z,10.67
2023-05-14T02:24:51.353Z,10.61
2023-05-14T02:27:53.099Z,10.70
2023-05-14T02:31:01.618Z,10.75
2023-05-14T02:34:04.567Z,10.65
2023-05-14T02:37:06.379Z,10.67
2023-05-14T02:40:09.174Z,10.73
2023-05-14T02:43:10.874Z,10.75
2023-05-14T02:46:12.651Z,10.71
2023-05-14T02:49:14.367Z,10.68
2023-05-14T02:52:16.115Z,10.69
2023-05-14T02:55:17.870Z,10.70
2023-05-14T02:58:19.692Z,10.68
2023-05-14T03:01:27.972Z,10.69
2023-05-14T03:04:30.008Z,10.71
2023-05-14T03:07:31.756Z,10.64
2023-05-14T03:10:33.549Z,10.63
2023-05-14T03:13:35.264Z,10.58
2023-05-14T03:16:37.102Z,10.61
2023-05-14T03:19:38.915Z,10.67
2023-05-14T03:22:40.703Z,10.65
2023-05-14T03:25:42.508Z,10.63
2023-05-14T03:28:44.697Z,10.55
2023-05-14T03:31:46.476Z,10.58
2023-05-14T03:34:48.337Z,10.67
2023-05-14T03:37:50.898Z,10.66
2023-05-14T03:40:52.592Z,10.69
2023-05-14T03:43:54.342Z,10.68
2023-05-14T03:46:56.169Z,10.68
2023-05-14T03:49:58.006Z,10.68
2023-05-14T03:52:59.758Z,10.72
2023-05-14T03:56:01.773Z,10.80
2023-05-14T03:59:03.505Z,10.81
2023-05-14T04:02:05.295Z,10.79
2023-05-14T04:05:07.428Z,10.80
2023-05-14T04:08:09.381Z,10.69
2023-05-14T04:11:11.126Z,10.76
2023-05-14T04:14:12.974Z,10.74
2023-05-14T04:17:14.711Z,10.79
2023-05-14T04:20:16.437Z,10.83
2023-05-14T04:23:18.228Z,10.87
2023-05-14T04:26:19.974Z,10.91
2023-05-14T04:29:21.781Z,10.96
2023-05-14T04:32:23.565Z,10.95
2023-05-14T04:35:25.375Z,10.94
2023-05-14T04:38:27.258Z,10.97
2023-05-14T04:41:29.026Z,10.99
2023-05-14T04:44:30.953Z,11.05
2023-05-14T04:47:32.848Z,11.08
2023-05-14T04:50:34.947Z,11.11
2023-05-14T04:53:36.645Z,11.16
2023-05-14T04:56:38.466Z,11.16
2023-05-14T04:59:40.415Z,11.21
2023-05-14T05:02:42.291Z,11.18
2023-05-14T05:05:44.119Z,11.17
2023-05-14T05:08:45.902Z,11.23
2023-05-14T05:11:47.647Z,11.30
2023-05-14T05:14:49.388Z,11.30
2023-05-14T05:17:51.334Z,11.32
2023-05-14T05:20:53.146Z,11.37
2023-05-14T05:23:54.842Z,11.35
2023-05-14T05:26:56.591Z,11.42
2023-05-14T05:29:58.336Z,11.51
2023-05-14T05:33:00.147Z,11.59
2023-05-14T05:36:02.014Z,11.64
2023-05-14T05:39:03.845Z,11.62
2023-05-14T05:42:06.117Z,11.72
2023-05-14T05:45:08.465Z,11.72
2023-05-14T05:48:10.321Z,11.76
2023-05-14T05:51:12.058Z,11.73
2023-05-14T05:54:13.850Z,11.70
2023-05-14T05:57:15.711Z,11.66
2023-05-14T06:00:17.981Z,11.68
2023-05-14T06:03:19.875Z,11.72
2023-05-14T06:06:22.046Z,11.77
2023-05-14T06:09:23.943Z,11.82
2023-05-14T06:12:25.916Z,11.88
2023-05-14T06:15:27.628Z,11.87
2023-05-14T06:18:29.416Z,11.93
2023-05-14T06:21:31.197Z,11.94
2023-05-14T06:24:33.060Z,11.96
2023-05-14T06:27:34.801Z,11.99
2023-05-14T06:30:36.543Z,11.99
2023-05-14T06:33:38.298Z,12.03
2023-05-14T06:36:40.304Z,12.02
2023-05-14T06:39:48.260Z,12.08
2023-05-14T06:42:50.044Z,12.05
2023-05-14T06:45:52.508Z,12.09
2023-05-14T06:48:54.320Z,12.05
2023-05-14T06:51:56.404Z,12.06
2023-05-14T06:54:58.168Z,12.15
2023-05-14T06:58:00.999Z,12.22
2023-05-14T07:01:02.803Z,12.19
2023-05-14T07:04:04.888Z,12.31
2023-05-14T07:07:06.666Z,12.30
2023-05-14T07:10:08.563Z,12.41
2023-05-14T07:13:10.426Z,12.51
2023-05-14T07:16:12.165Z,12.62
2023-05-14T07:19:14.291Z,12.68
2023-05-14T07:22:16.256Z,12.72
2023-05-14T07:25:18.145Z,12.70
2023-05-14T07:28:20.037Z,12.75
2023-05-14T07:31:21.852Z,12.87
2023-05-14T07:34:23.926Z,12.86
2023-05-14T07:37:28.790Z,12.92
2023-05-14T07:40:30.622Z,13.06
2023-05-14T07:43:32.348Z,13.33
2023-05-14T07:46:34.056Z,13.54
2023-05-14T07:49:35.932Z,13.73
2023-05-14T07:52:37.722Z,13.62
2023-05-14T07:55:39.469Z,13.66
2023-05-14T07:58:41.464Z,13.76
2023-05-14T08:01:43.286Z,13.76
2023-05-14T08:04:45.193Z,13.72
2023-05-14T08:07:47.018Z,13.70
2023-05-14T08:10:48.766Z,13.65
2023-05-14T08:13:50.672Z,13.63
2023-05-14T08:16:52.829Z,13.67
2023-05-14T08:19:54.627Z,13.74
2023-05-14T08:22:58.077Z,13.81
2023-05-14T08:25:59.876Z,13.79
2023-05-14T08:29:01.619Z,13.91
2023-05-14T08:32:11.646Z,13.97
2023-05-14T08:35:21.542Z,14.06
2023-05-14T08:38:23.380Z,14.12
2023-05-14T08:41:25.610Z,14.12
2023-05-14T08:44:36.517Z,14.27
2023-05-14T08:47:38.388Z,14.28
2023-05-14T08:50:40.333Z,14.43
2023-05-14T08:53:42.293Z,14.38
2023-05-14T08:56:45.674Z,14.58
2023-05-14T08:59:47.627Z,14.66
2023-05-14T09:02:50.058Z,14.86
2023-05-14T09:05:52.207Z,14.81
2023-05-14T09:08:54.416Z,14.77
2023-05-14T09:11:56.334Z,14.88
2023-05-14T09:14:58.148Z,14.92
2023-05-14T09:17:59.924Z,14.88
2023-05-14T09:21:01.913Z,15.01
2023-05-14T09:24:04.049Z,15.13
2023-05-14T09:27:06.705Z,15.07
2023-05-14T09:30:10.732Z,14.61
2023-05-14T09:33:12.454Z,14.75
2023-05-14T09:36:14.296Z,14.72
2023-05-14T09:39:16.213Z,14.74
2023-05-14T09:42:17.984Z,14.71
2023-05-14T09:45:19.867Z,14.74
2023-05-14T09:48:22.486Z,14.68
2023-05-14T09:51:24.804Z,14.68
2023-05-14T09:54:27.392Z,14.71
2023-05-14T09:57:29.256Z,14.58
2023-05-14T10:00:32.514Z,14.66
2023-05-14T10:03:34.489Z,14.54
2023-05-14T10:06:37.763Z,14.54
2023-05-14T10:09:41.687Z,14.63
2023-05-14T10:12:48.213Z,14.49
2023-05-14T10:16:02.704Z,14.56
2023-05-14T10:19:08.684Z,14.60
2023-05-14T10:22:11.649Z,14.57
2023-05-14T10:25:14.239Z,14.57
2023-05-14T10:28:16.255Z,14.52
2023-05-14T10:31:18.013Z,14.60
2023-05-14T10:34:40.759Z,14.63
2023-05-14T10:37:44.645Z,14.60
2023-05-14T10:40:47.704Z,14.66
2023-05-14T10:43:50.276Z,14.71
2023-05-14T10:46:52.411Z,15.97
2023-05-14T10:49:56.165Z,16.53
2023-05-14T10:52:58.004Z,17.34
2023-05-14T10:56:04.522Z,17.34
2023-05-14T10:59:06.753Z,17.37
2023-05-14T11:02:19.530Z,17.23
2023-05-14T11:05:21.355Z,17.62
2023-05-14T11:08:25.940Z,17.54
2023-05-14T11:11:29.447Z,17.30
2023-05-14T11:14:31.898Z,17.01
2023-05-14T11:17:35.818Z,16.88
2023-05-14T11:20:37.644Z,17.76
2023-05-14T11:23:39.419Z,18.02
2023-05-14T11:26:41.345Z,17.81
2023-05-14T11:29:47.112Z,17.49
2023-05-14T11:32:50.091Z,17.83
2023-05-14T11:35:52.254Z,17.98
2023-05-14T11:38:54.029Z,18.59
2023-05-14T11:41:55.902Z,18.65
2023-05-14T11:44:57.709Z,18.48
2023-05-14T11:47:59.489Z,18.24
2023-05-14T11:51:01.300Z,17.91
2023-05-14T11:54:04.013Z,17.48
2023-05-14T11:57:10.816Z,17.10
2023-05-14T12:00:21.569Z,16.75
2023-05-14T12:03:26.634Z,16.34
2023-05-14T12:06:32.360Z,16.15
2023-05-14T12:09:38.085Z,15.99
2023-05-14T12:12:40.030Z,15.78
2023-05-14T12:15:45.385Z,15.43
2023-05-14T12:18:47.157Z,15.36
2023-05-14T12:21:51.040Z,15.04
2023-05-14T12:24:57.252Z,14.87
2023-05-14T12:27:58.961Z,14.78
2023-05-14T12:31:00.767Z,14.65
2023-05-14T12:34:03.997Z,14.66
2023-05-14T12:37:08.831Z,14.62
2023-05-14T12:40:11.573Z,14.56
2023-05-14T12:43:13.431Z,14.43
2023-05-14T12:46:15.550Z,14.39
2023-05-14T12:49:17.267Z,14.30
2023-05-14T12:52:26.084Z,14.15
2023-05-14T12:55:38.322Z,14.19
2023-05-14T12:58:40.231Z,14.24
2023-05-14T13:01:42.649Z,14.24
2023-05-14T13:04:45.178Z,14.28
2023-05-14T13:07:46.988Z,14.25
2023-05-14T13:10:48.764Z,14.16
2023-05-14T13:13:50.735Z,14.29
2023-05-14T13:16:52.627Z,14.26
2023-05-14T13:19:54.352Z,14.24
2023-05-14T13:22:56.084Z,14.25
2023-05-14T13:25:57.881Z,14.32
2023-05-14T13:28:59.623Z,14.34
2023-05-14T13:32:01.372Z,14.36
2023-05-14T13:35:03.221Z,14.36
2023-05-14T13:38:04.999Z,14.36
2023-05-14T13:41:06.871Z,14.26
2023-05-14T13:44:08.586Z,14.09
2023-05-14T13:47:10.692Z,14.11
2023-05-14T13:50:12.646Z,14.08
2023-05-14T13:53:14.446Z,14.02
2023-05-14T13:56:16.248Z,13.99
2023-05-14T13:59:18.478Z,13.98
2023-05-14T14:02:20.328Z,13.94
2023-05-14T14:05:23.037Z,13.78
2023-05-14T14:08:25.099Z,13.75
2023-05-14T14:11:27.222Z,13.61
2023-05-14T14:14:29.003Z,13.46
2023-05-14T14:17:30.779Z,13.41
2023-05-14T14:20:32.849Z,13.37
2023-05-14T14:23:34.684Z,13.35
2023-05-14T14:26:36.391Z,13.33
2023-05-14T14:29:38.193Z,13.33
2023-05-14T14:32:39.966Z,13.25
2023-05-14T14:35:41.735Z,13.18
2023-05-14T14:38:43.551Z,13.09
2023-05-14T14:41:45.385Z,13.09
2023-05-14T14:44:47.157Z,12.96
2023-05-14T14:47:49.290Z,12.93
2023-05-14T14:50:52.084Z,12.92
2023-05-14T14:53:53.853Z,12.87
2023-05-14T14:56:56.389Z,12.85
2023-05-14T14:59:59.152Z,12.81
2023-05-14T15:03:01.916Z,12.76
2023-05-14T15:06:04.213Z,12.71
2023-05-14T15:09:05.998Z,12.66
2023-05-14T15:12:09.050Z,12.63
2023-05-14T15:15:10.951Z,12.50
2023-05-14T15:18:12.858Z,12.49
2023-05-14T15:21:14.854Z,12.33
2023-05-14T15:24:16.652Z,12.35
2023-05-14T15:27:18.384Z,12.34
2023-05-14T15:30:20.498Z,12.33
2023-05-14T15:33:22.484Z,12.41
2023-05-14T15:36:24.487Z,12.34
2023-05-14T15:39:27.276Z,12.39
2023-05-14T15:42:29.810Z,12.40
2023-05-14T15:45:31.716Z,12.42
2023-05-14T15:48:33.795Z,12.39
2023-05-14T15:51:35.584Z,12.38
2023-05-14T15:54:37.339Z,12.40
2023-05-14T15:57:39.100Z,12.40
2023-05-14T16:00:42.449Z,12.43
2023-05-14T16:03:44.284Z,12.39
2023-05-14T16:06:46.243Z,12.37
2023-05-14T16:09:48.025Z,12.37
2023-05-14T16:12:50.207Z,12.29
2023-05-14T16:15:53.983Z,12.23
2023-05-14T16:18:56.477Z,12.32
2023-05-14T16:22:04.453Z,12.28
2023-05-14T16:25:07.217Z,12.30
2023-05-14T16:28:09.300Z,12.35
2023-05-14T16:31:11.049Z,12.37
2023-05-14T16:34:12.877Z,12.42
2023-05-14T16:37:15.080Z,12.45
2023-05-14T16:40:17.858Z,12.42
2023-05-14T16:43:19.609Z,12.40
2023-05-14T16:46:21.386Z,12.37
2023-05-14T16:49:23.280Z,12.43
2023-05-14T16:52:25.219Z,12.42
2023-05-14T16:55:27.278Z,12.38
2023-05-14T16:58:29.101Z,12.37
2023-05-14T17:01:31.036Z,12.43
2023-05-14T17:04:33.427Z,12.45
2023-05-14T17:07:37.255Z,12.47
2023-05-14T17:10:39.136Z,12.47
2023-05-14T17:13:41.202Z,12.51
2023-05-14T17:16:43.079Z,12.42
2023-05-14T17:19:48.364Z,12.51
2023-05-14T17:22:50.113Z,12.43
2023-05-14T17:25:52.063Z,12.37
2023-05-14T17:28:53.822Z,12.40
2023-05-14T17:31:55.748Z,12.32
2023-05-14T17:34:57.696Z,12.32
2023-05-14T17:38:00.640Z,12.35
2023-05-14T17:41:02.772Z,12.35
2023-05-14T17:44:04.728Z,12.30
2023-05-14T17:47:07.276Z,12.33
2023-05-14T17:50:09.253Z,12.31
2023-05-14T17:53:11.137Z,12.30
2023-05-14T17:56:12.860Z,12.23
2023-05-14T17:59:14.605Z,12.29
2023-05-14T18:02:16.347Z,12.30
2023-05-14T18:05:20.493Z,12.38
2023-05-14T18:08:23.349Z,12.39
2023-05-14T18:11:26.045Z,12.30
2023-05-14T18:14:27.873Z,12.30
2023-05-14T18:17:29.782Z,12.32
2023-05-14T18:20:33.370Z,12.35
2023-05-14T18:23:36.703Z,12.33
2023-05-14T18:26:38.808Z,12.35
2023-05-14T18:29:41.493Z,12.37
2023-05-14T18:32:44.679Z,12.43
2023-05-14T18:35:46.594Z,12.42
2023-05-14T18:38:48.618Z,12.50
2023-05-14T18:42:22.973Z,12.55
2023-05-14T18:45:25.735Z,12.61
2023-05-14T18:48:27.929Z,12.62
2023-05-14T18:51:29.741Z,12.60
2023-05-14T18:54:31.527Z,12.64
2023-05-14T18:57:33.860Z,12.62
2023-05-14T19:00:35.792Z,12.60
2023-05-14T19:03:37.739Z,12.58
2023-05-14T19:06:40.567Z,12.63
2023-05-14T19:09:42.327Z,12.60
2023-05-14T19:12:44.165Z,12.59
2023-05-14T19:15:46.003Z,12.62
2023-05-14T19:18:47.876Z,12.63
2023-05-14T19:21:49.700Z,12.60
2023-05-14T19:24:51.805Z,12.62
2023-05-14T19:27:55.300Z,12.56
2023-05-14T19:30:57.320Z,12.55
2023-05-14T19:33:59.122Z,12.54
2023-05-14T19:37:01.076Z,12.51
2023-05-14T19:40:03.634Z,12.54
2023-05-14T19:43:05.532Z,12.47
2023-05-14T19:46:07.755Z,12.47
2023-05-14T19:49:09.745Z,12.40
2023-05-14T19:52:11.584Z,12.46
2023-05-14T19:55:13.385Z,12.47
2023-05-14T19:58:15.248Z,12.44
2023-05-14T20:01:17.073Z,12.46
2023-05-14T20:04:19.808Z,12.46
2023-05-14T20:07:21.637Z,12.49
2023-05-14T20:10:24.254Z,12.48
2023-05-14T20:13:26.134Z,12.40
2023-05-14T20:16:28.592Z,12.39
2023-05-14T20:19:31.014Z,12.31
2023-05-14T20:22:33.272Z,12.30
2023-05-14T20:25:35.565Z,12.33
2023-05-14T20:28:37.406Z,12.34
2023-05-14T20:31:39.106Z,12.26
2023-05-14T20:34:40.823Z,12.32
2023-05-14T20:37:42.621Z,12.40
2023-05-14T20:40:44.712Z,12.36
2023-05-14T20:43:46.418Z,12.37
2023-05-14T20:46:48.255Z,12.40
2023-05-14T20:49:51.270Z,12.42
2023-05-14T20:52:53.053Z,12.41
2023-05-14T20:55:54.792Z,12.39
2023-05-14T20:58:56.726Z,12.34
2023-05-14T21:01:58.605Z,12.38
2023-05-14T21:05:00.373Z,12.42
2023-05-14T21:08:02.118Z,12.41
2023-05-14T21:11:03.873Z,12.35
2023-05-14T21:14:05.771Z,12.31
2023-05-14T21:17:07.595Z,12.31
2023-05-14T21:20:11.934Z,12.33
2023-05-14T21:23:14.674Z,12.33
2023-05-14T21:26:16.476Z,12.37
2023-05-14T21:29:18.241Z,12.40
2023-05-14T21:32:22.124Z,12.42
2023-05-14T21:35:24.366Z,12.48
2023-05-14T21:38:26.551Z,12.46
2023-05-14T21:41:28.306Z,12.43
2023-05-14T21:44:30.032Z,12.43
2023-05-14T21:47:33.074Z,12.38
2023-05-14T21:50:34.832Z,12.37
2023-05-14T21:53:36.575Z,12.39
2023-05-14T21:56:38.490Z,12.49
2023-05-14T21:59:40.348Z,12.49
2023-05-14T22:02:42.177Z,12.41
2023-05-14T22:05:44.000Z,12.31
2023-05-14T22:08:45.855Z,12.41
2023-05-14T22:11:47.680Z,12.43
2023-05-14T22:14:49.361Z,12.43
2023-05-14T22:17:51.064Z,12.42
2023-05-14T22:20:52.858Z,12.43
2023-05-14T22:23:54.602Z,12.42
2023-05-14T22:26:56.341Z,12.42
2023-05-14T22:29:58.723Z,12.39
2023-05-14T22:33:00.637Z,12.41
2023-05-14T22:36:02.575Z,12.43
2023-05-14T22:39:04.362Z,12.40
2023-05-14T22:42:06.230Z,12.38
2023-05-14T22:45:08.567Z,12.39
2023-05-14T22:48:10.548Z,12.23
2023-05-14T22:51:12.599Z,12.42
2023-05-14T22:54:14.383Z,12.42
2023-05-14T22:57:16.162Z,12.40
2023-05-14T23:00:18.087Z,12.42
2023-05-14T23:03:19.791Z,12.44
2023-05-14T23:06:21.802Z,12.48
2023-05-14T23:09:23.608Z,12.45
2023-05-14T23:12:25.372Z,12.51
2023-05-14T23:15:27.492Z,12.49
2023-05-14T23:18:30.850Z,12.54
2023-05-14T23:21:33.042Z,12.54
2023-05-14T23:24:34.839Z,12.51
2023-05-14T23:27:36.631Z,12.52
2023-05-14T23:30:38.387Z,12.57
2023-05-14T23:33:40.244Z,12.56
2023-05-14T23:36:42.639Z,12.57
2023-05-14T23:39:44.324Z,12.60
2023-05-14T23:42:46.468Z,12.62
2023-05-14T23:45:48.297Z,12.62
2023-05-14T23:48:51.972Z,12.62
2023-05-14T23:51:53.687Z,12.64
2023-05-14T23:54:55.518Z,12.61
2023-05-14T23:57:57.330Z,12.63
